createdAt,value
2023-05-05T00:00:49.639Z,5.47
2023-05-05T00:03:23.372Z,5.95
2023-05-05T00:08:30.113Z,5.10
2023-05-05T00:11:03.368Z,5.70
2023-05-05T00:13:36.836Z,4.85
2023-05-05T00:16:11.606Z,6.63
2023-05-05T00:18:45.685Z,5.57
2023-05-05T00:21:18.912Z,6.13
2023-05-05T00:23:52.213Z,5.63
2023-05-05T00:26:25.506Z,5.13
2023-05-05T00:31:34.216Z,5.78
2023-05-05T00:34:07.533Z,5.88
2023-05-05T00:36:41.401Z,5.05
2023-05-05T00:39:15.084Z,5.40
2023-05-05T00:41:48.284Z,4.97
2023-05-05T00:44:37.979Z,4.97
2023-05-05T00:47:13.881Z,5.35
2023-05-05T00:49:47.190Z,4.88
2023-05-05T00:52:20.456Z,5.15
2023-05-05T00:54:54.289Z,5.20
2023-05-05T01:00:02.490Z,5.18
2023-05-05T01:02:37.223Z,5.05
2023-05-05T01:05:11.590Z,4.90
2023-05-05T01:07:56.962Z,5.18
2023-05-05T01:10:37.558Z,4.88
2023-05-05T01:13:24.949Z,4.72
2023-05-05T01:16:02.935Z,5.15
2023-05-05T01:18:43.171Z,5.88
2023-05-05T01:21:24.360Z,5.63
2023-05-05T01:24:14.814Z,5.22
2023-05-05T01:27:07.842Z,5.55
2023-05-05T01:29:59.131Z,4.95
2023-05-05T01:32:38.590Z,5.40
2023-05-05T01:35:18.201Z,4.55
2023-05-05T01:37:57.021Z,5.05
2023-05-05T01:40:34.691Z,5.22
2023-05-05T01:43:10.636Z,5.18
2023-05-05T01:45:45.927Z,4.93
2023-05-05T01:48:23.162Z,5.40
2023-05-05T01:50:56.828Z,6.25
2023-05-05T01:56:04.798Z,5.78
2023-05-05T01:58:39.806Z,5.20
2023-05-05T02:01:14.547Z,5.53
2023-05-05T02:03:51.097Z,5.25
2023-05-05T02:06:26.815Z,5.75
2023-05-05T02:09:01.473Z,4.95
2023-05-05T02:11:35.333Z,4.20
2023-05-05T02:14:10.224Z,5.25
2023-05-05T02:16:44.013Z,5.22
2023-05-05T02:19:22.435Z,4.93
2023-05-05T02:21:55.901Z,4.22
2023-05-05T02:24:30.134Z,4.40
2023-05-05T02:27:07.133Z,5.38
2023-05-05T02:29:45.918Z,4.97
2023-05-05T02:32:22.088Z,5.85
2023-05-05T02:35:02.789Z,5.68
2023-05-05T02:37:37.909Z,5.18
2023-05-05T02:40:12.231Z,5.13
2023-05-05T02:42:49.039Z,5.32
2023-05-05T02:45:24.260Z,5.50
2023-05-05T02:47:57.591Z,4.93
2023-05-05T02:50:33.099Z,5.03
2023-05-05T02:53:18.169Z,5.03
2023-05-05T02:55:54.529Z,4.88
2023-05-05T02:58:42.622Z,4.85
2023-05-05T03:01:34.339Z,4.82
2023-05-05T03:04:15.584Z,4.53
2023-05-05T03:07:00.061Z,4.97
2023-05-05T03:09:41.246Z,4.90
2023-05-05T03:12:21.747Z,5.75
2023-05-05T03:17:45.263Z,5.45
2023-05-05T03:20:19.474Z,6.10
2023-05-05T03:22:57.080Z,5.55
2023-05-05T03:25:43.743Z,5.28
2023-05-05T03:28:20.058Z,5.07
2023-05-05T03:30:53.503Z,5.50
2023-05-05T03:33:27.509Z,5.28
2023-05-05T03:36:05.038Z,4.97
2023-05-05T03:38:39.874Z,4.45
2023-05-05T03:41:13.180Z,5.22
2023-05-05T03:43:47.583Z,5.82
2023-05-05T03:46:20.886Z,4.20
2023-05-05T03:48:57.020Z,4.93
2023-05-05T03:51:31.658Z,5.00
2023-05-05T03:54:07.448Z,4.88
2023-05-05T03:56:41.910Z,4.68
2023-05-05T04:01:49.976Z,5.07
2023-05-05T04:04:23.744Z,5.07
2023-05-05T04:06:57.950Z,5.18
2023-05-05T04:09:32.773Z,4.90
2023-05-05T04:12:06.857Z,5.80
2023-05-05T04:14:40.416Z,5.47
2023-05-05T04:17:14.964Z,5.55
2023-05-05T04:19:48.516Z,4.40
2023-05-05T04:22:22.055Z,5.97
2023-05-05T04:24:57.085Z,4.90
2023-05-05T04:27:31.497Z,4.47
2023-05-05T04:30:07.900Z,5.00
2023-05-05T04:32:43.184Z,4.90
2023-05-05T04:35:17.357Z,4.38
2023-05-05T04:37:50.811Z,5.57
2023-05-05T04:40:26.241Z,5.45
2023-05-05T04:43:01.058Z,4.95
2023-05-05T04:45:35.535Z,4.15
2023-05-05T04:48:09.178Z,6.25
2023-05-05T04:50:43.140Z,5.18
2023-05-05T04:53:16.716Z,4.88
2023-05-05T04:55:51.788Z,4.80
2023-05-05T04:58:25.115Z,5.03
2023-05-05T05:00:58.642Z,5.35
2023-05-05T05:03:32.351Z,4.97
2023-05-05T05:08:38.784Z,4.50
2023-05-05T05:11:13.334Z,4.13
2023-05-05T05:13:46.933Z,4.60
2023-05-05T05:16:20.255Z,4.95
2023-05-05T05:18:53.624Z,4.13
2023-05-05T05:21:27.641Z,4.60
2023-05-05T05:24:01.866Z,5.07
2023-05-05T05:26:37.080Z,4.93
2023-05-05T05:29:10.641Z,5.05
2023-05-05T05:31:44.059Z,4.43
2023-05-05T05:34:17.380Z,5.35
2023-05-05T05:36:51.797Z,4.53
2023-05-05T05:39:25.120Z,4.85
2023-05-05T05:41:59.852Z,4.30
2023-05-05T05:44:33.748Z,4.65
2023-05-05T05:47:07.539Z,4.75
2023-05-05T05:49:41.355Z,4.45
2023-05-05T05:54:47.949Z,4.90
2023-05-05T05:57:24.502Z,4.35
2023-05-05T06:00:00.409Z,4.72
2023-05-05T06:02:45.107Z,5.10
2023-05-05T06:05:22.076Z,4.22
2023-05-05T06:07:57.130Z,4.93
2023-05-05T06:10:32.606Z,4.70
2023-05-05T06:13:15.152Z,4.13
2023-05-05T06:15:51.771Z,4.45
2023-05-05T06:18:25.558Z,4.60
2023-05-05T06:20:58.874Z,4.35
2023-05-05T06:23:34.223Z,5.20
2023-05-05T06:26:11.200Z,4.63
2023-05-05T06:28:45.867Z,5.30
2023-05-05T06:31:19.083Z,4.63
2023-05-05T06:33:52.314Z,3.72
2023-05-05T06:36:26.310Z,4.28
2023-05-05T06:38:59.596Z,4.78
2023-05-05T06:41:32.898Z,4.72
2023-05-05T06:44:07.756Z,4.70
2023-05-05T06:46:40.952Z,5.07
2023-05-05T06:49:14.200Z,5.47
2023-05-05T06:51:47.485Z,4.75
2023-05-05T06:54:20.773Z,5.55
2023-05-05T06:56:54.022Z,5.00
2023-05-05T06:59:28.622Z,4.93
2023-05-05T07:02:01.888Z,4.32
2023-05-05T07:04:35.120Z,4.63
2023-05-05T07:07:08.296Z,4.57
2023-05-05T07:09:41.834Z,4.38
2023-05-05T07:12:15.145Z,5.22
2023-05-05T07:14:49.925Z,4.97
2023-05-05T07:17:23.274Z,5.05
2023-05-05T07:19:56.575Z,5.45
2023-05-05T07:22:30.050Z,4.97
2023-05-05T07:25:03.896Z,4.82
2023-05-05T07:30:15.541Z,5.05
2023-05-05T07:32:51.865Z,4.65
2023-05-05T07:35:25.173Z,5.10
2023-05-05T07:37:58.411Z,4.72
2023-05-05T07:40:32.064Z,5.00
2023-05-05T07:43:05.415Z,5.00
2023-05-05T07:45:40.160Z,5.13
2023-05-05T07:48:13.376Z,4.43
2023-05-05T07:50:46.608Z,5.05
2023-05-05T07:53:19.869Z,4.75
2023-05-05T07:55:53.432Z,4.55
2023-05-05T07:58:26.742Z,4.68
2023-05-05T08:01:02.445Z,4.88
2023-05-05T08:03:35.923Z,4.13
2023-05-05T08:06:10.830Z,4.15
2023-05-05T08:08:44.005Z,4.20
2023-05-05T08:11:17.573Z,4.30
2023-05-05T08:13:51.061Z,3.67
2023-05-05T08:16:25.727Z,4.60
2023-05-05T08:18:58.955Z,4.45
2023-05-05T08:21:32.209Z,4.45
2023-05-05T08:24:05.636Z,4.63
2023-05-05T08:26:38.911Z,4.53
2023-05-05T08:29:12.136Z,4.78
2023-05-05T08:31:46.787Z,4.38
2023-05-05T08:34:20.042Z,4.45
2023-05-05T08:36:53.252Z,4.13
2023-05-05T08:39:26.472Z,4.45
2023-05-05T08:41:59.755Z,3.92
2023-05-05T08:44:33.006Z,4.82
2023-05-05T08:47:11.739Z,4.55
2023-05-05T08:49:47.152Z,4.50
2023-05-05T08:52:24.405Z,4.50
2023-05-05T08:55:03.218Z,4.45
2023-05-05T08:57:42.396Z,4.35
2023-05-05T09:00:16.499Z,3.75
2023-05-05T09:02:51.368Z,4.22
2023-05-05T09:05:24.737Z,4.47
2023-05-05T09:07:58.104Z,4.18
2023-05-05T09:10:33.389Z,5.00
2023-05-05T09:13:07.178Z,4.43
2023-05-05T09:15:42.051Z,3.75
2023-05-05T09:18:16.612Z,3.97
2023-05-05T09:20:49.983Z,4.20
2023-05-05T09:23:23.495Z,3.85
2023-05-05T09:26:08.817Z,4.63
2023-05-05T09:28:53.098Z,3.65
2023-05-05T09:31:26.807Z,3.55
2023-05-05T09:34:03.645Z,4.13
2023-05-05T09:36:44.088Z,4.43
2023-05-05T09:39:19.705Z,4.10
2023-05-05T09:41:52.927Z,4.30
2023-05-05T09:44:35.968Z,4.43
2023-05-05T09:47:22.017Z,4.20
2023-05-05T09:50:04.195Z,3.88
2023-05-05T09:52:38.045Z,3.33
2023-05-05T09:57:51.548Z,3.47
2023-05-05T10:00:39.569Z,4.07
2023-05-05T10:03:12.802Z,3.78
2023-05-05T10:05:52.406Z,4.22
2023-05-05T10:08:28.689Z,3.47
2023-05-05T10:11:04.992Z,3.10
2023-05-05T10:13:41.002Z,3.95
2023-05-05T10:16:14.561Z,3.45
2023-05-05T10:18:48.511Z,3.53
2023-05-05T10:21:24.943Z,4.18
2023-05-05T10:24:03.684Z,3.53
2023-05-05T10:26:42.505Z,3.88
2023-05-05T10:29:24.156Z,3.63
2023-05-05T10:32:01.259Z,3.42
2023-05-05T10:34:40.941Z,3.20
2023-05-05T10:37:17.704Z,3.97
2023-05-05T10:39:52.676Z,3.42
2023-05-05T10:42:27.738Z,4.30
2023-05-05T10:45:01.062Z,3.33
2023-05-05T10:47:35.569Z,4.10
2023-05-05T10:50:16.948Z,3.95
2023-05-05T10:52:59.509Z,3.17
2023-05-05T10:55:40.913Z,3.38
2023-05-05T10:58:43.636Z,3.45
2023-05-05T11:01:31.901Z,3.70
2023-05-05T11:04:18.933Z,3.55
2023-05-05T11:07:23.736Z,3.65
2023-05-05T11:10:01.384Z,3.25
2023-05-05T11:13:05.874Z,3.60
2023-05-05T11:15:39.482Z,3.55
2023-05-05T11:18:31.401Z,3.15
2023-05-05T11:21:19.556Z,3.58
2023-05-05T11:23:53.534Z,3.00
2023-05-05T11:26:52.512Z,3.40
2023-05-05T11:29:25.990Z,3.17
2023-05-05T11:32:23.127Z,3.15
2023-05-05T11:34:56.559Z,4.05
2023-05-05T11:37:29.922Z,2.88
2023-05-05T11:40:21.013Z,3.25
2023-05-05T11:43:07.513Z,3.15
2023-05-05T11:45:40.774Z,3.20
2023-05-05T11:48:27.007Z,4.03
2023-05-05T11:51:02.390Z,3.35
2023-05-05T11:53:35.671Z,3.30
2023-05-05T11:56:09.720Z,3.28
2023-05-05T11:58:44.519Z,3.20
2023-05-05T12:01:17.866Z,3.03
2023-05-05T12:03:51.278Z,3.42
2023-05-05T12:06:25.035Z,3.38
2023-05-05T12:11:31.693Z,3.35
2023-05-05T12:14:10.640Z,2.85
2023-05-05T12:16:55.359Z,3.25
2023-05-05T12:19:32.878Z,2.63
2023-05-05T12:22:06.129Z,3.20
2023-05-05T12:24:39.405Z,3.45
2023-05-05T12:27:13.214Z,3.92
2023-05-05T12:32:23.084Z,3.35
2023-05-05T12:34:57.627Z,3.25
2023-05-05T12:37:31.082Z,3.25
2023-05-05T12:40:06.342Z,3.15
2023-05-05T12:42:40.270Z,3.40
2023-05-05T12:45:18.716Z,3.85
2023-05-05T12:47:51.961Z,3.30
2023-05-05T12:50:31.979Z,3.30
2023-05-05T12:53:05.180Z,2.95
2023-05-05T12:55:39.893Z,3.80
2023-05-05T12:58:13.118Z,2.88
2023-05-05T13:00:47.691Z,3.10
2023-05-05T13:03:21.500Z,3.15
2023-05-05T13:05:54.846Z,2.85
2023-05-05T13:08:43.267Z,3.05
2023-05-05T13:11:16.632Z,3.33
2023-05-05T13:13:49.876Z,2.97
2023-05-05T13:16:24.571Z,2.78
2023-05-05T13:18:58.163Z,2.80
2023-05-05T13:21:31.594Z,3.53
2023-05-05T13:24:22.947Z,3.03
2023-05-05T13:26:58.338Z,2.63
2023-05-05T13:29:31.874Z,3.00
2023-05-05T13:32:08.011Z,3.10
2023-05-05T13:34:42.486Z,2.80
2023-05-05T13:37:15.758Z,3.15
2023-05-05T13:39:49.037Z,2.70
2023-05-05T13:42:22.210Z,3.00
2023-05-05T13:44:55.464Z,3.00
2023-05-05T13:47:30.080Z,3.10
2023-05-05T13:50:03.393Z,2.80
2023-05-05T13:52:36.525Z,2.70
2023-05-05T13:55:10.906Z,2.80
2023-05-05T13:57:44.121Z,2.63
2023-05-05T14:00:18.515Z,2.63
2023-05-05T14:02:53.280Z,2.90
2023-05-05T14:05:26.496Z,2.92
2023-05-05T14:07:59.729Z,3.03
2023-05-05T14:10:32.907Z,3.38
2023-05-05T14:13:06.158Z,2.60
2023-05-05T14:15:39.413Z,2.63
2023-05-05T14:18:14.005Z,3.55
2023-05-05T14:20:47.177Z,3.55
2023-05-05T14:23:20.451Z,3.05
2023-05-05T14:25:53.892Z,3.40
2023-05-05T14:28:27.142Z,2.85
2023-05-05T14:31:00.417Z,2.50
2023-05-05T14:33:34.988Z,2.95
2023-05-05T14:36:08.954Z,2.92
2023-05-05T14:38:43.139Z,3.40
2023-05-05T14:41:16.363Z,2.88
2023-05-05T14:43:49.549Z,3.08
2023-05-05T14:46:22.939Z,3.42
2023-05-05T14:48:57.796Z,3.30
2023-05-05T14:51:31.483Z,3.00
2023-05-05T14:54:07.497Z,2.47
2023-05-05T14:56:45.093Z,3.17
2023-05-05T14:59:18.341Z,2.88
2023-05-05T15:01:51.700Z,2.92
2023-05-05T15:04:26.370Z,2.78
2023-05-05T15:06:59.568Z,2.70
2023-05-05T15:09:32.777Z,2.83
2023-05-05T15:12:06.521Z,2.55
2023-05-05T15:14:39.960Z,2.80
2023-05-05T15:17:13.200Z,2.60
2023-05-05T15:19:47.751Z,3.10
2023-05-05T15:22:20.987Z,2.97
2023-05-05T15:24:54.253Z,3.15
2023-05-05T15:27:27.630Z,2.92
2023-05-05T15:30:01.277Z,3.20
2023-05-05T15:32:34.835Z,2.80
2023-05-05T15:35:10.471Z,2.75
2023-05-05T15:37:43.795Z,2.45
2023-05-05T15:40:17.046Z,2.33
2023-05-05T15:42:50.888Z,2.67
2023-05-05T15:47:57.510Z,2.67
2023-05-05T15:50:32.256Z,1.98
2023-05-05T15:53:05.502Z,2.72
2023-05-05T15:55:40.234Z,2.60
2023-05-05T15:58:13.398Z,2.55
2023-05-05T16:00:46.585Z,2.80
2023-05-05T16:03:20.037Z,2.70
2023-05-05T16:05:55.201Z,2.67
2023-05-05T16:08:29.079Z,2.67
2023-05-05T16:13:35.640Z,2.40
2023-05-05T16:16:08.949Z,3.38
2023-05-05T16:18:42.148Z,3.55
2023-05-05T16:21:16.786Z,2.33
2023-05-05T16:23:50.068Z,2.30
2023-05-05T16:26:23.330Z,2.10
2023-05-05T16:28:57.051Z,2.45
2023-05-05T16:31:30.344Z,2.40
2023-05-05T16:34:04.242Z,2.42
2023-05-05T16:39:12.012Z,2.80
2023-05-05T16:41:45.541Z,2.63
2023-05-05T16:44:18.760Z,2.53
2023-05-05T16:46:51.974Z,2.33
2023-05-05T16:49:25.192Z,2.88
2023-05-05T16:51:59.827Z,2.20
2023-05-05T16:54:33.115Z,2.53
2023-05-05T16:57:06.350Z,2.90
2023-05-05T16:59:41.662Z,2.38
2023-05-05T17:02:15.098Z,2.70
2023-05-05T17:04:48.494Z,2.58
2023-05-05T17:07:23.068Z,2.47
2023-05-05T17:09:56.361Z,2.25
2023-05-05T17:12:29.703Z,2.30
2023-05-05T17:15:03.134Z,2.15
2023-05-05T17:17:36.617Z,2.22
2023-05-05T17:20:10.980Z,2.50
2023-05-05T17:22:46.584Z,2.28
2023-05-05T17:25:20.000Z,2.10
2023-05-05T17:27:53.302Z,2.45
2023-05-05T17:30:26.796Z,2.63
2023-05-05T17:33:00.212Z,2.03
2023-05-05T17:35:33.477Z,2.50
2023-05-05T17:38:08.056Z,2.08
2023-05-05T17:40:41.288Z,2.20
2023-05-05T17:43:14.587Z,2.03
2023-05-05T17:45:47.778Z,2.10
2023-05-05T17:48:21.081Z,2.20
2023-05-05T17:50:54.711Z,1.85
2023-05-05T17:53:29.320Z,1.98
2023-05-05T17:56:02.591Z,2.53
2023-05-05T17:58:36.421Z,1.95
2023-05-05T18:01:13.583Z,1.88
2023-05-05T18:03:46.927Z,2.47
2023-05-05T18:06:20.378Z,1.98
2023-05-05T18:08:55.005Z,2.45
2023-05-05T18:11:30.928Z,1.83
2023-05-05T18:14:04.129Z,2.30
2023-05-05T18:16:37.521Z,2.55
2023-05-05T18:19:10.706Z,2.38
2023-05-05T18:21:43.908Z,2.00
2023-05-05T18:24:20.295Z,2.63
2023-05-05T18:26:54.395Z,2.35
2023-05-05T18:29:28.318Z,1.90
2023-05-05T18:32:01.816Z,1.95
2023-05-05T18:34:35.468Z,1.90
2023-05-05T18:37:08.680Z,2.13
2023-05-05T18:39:44.131Z,2.00
2023-05-05T18:42:17.482Z,1.92
2023-05-05T18:44:50.743Z,2.30
2023-05-05T18:47:23.960Z,1.95
2023-05-05T18:49:57.145Z,2.25
2023-05-05T18:52:30.359Z,1.98
2023-05-05T18:55:05.358Z,1.85
2023-05-05T18:57:38.689Z,2.15
2023-05-05T19:00:12.830Z,2.13
2023-05-05T19:02:46.521Z,1.92
2023-05-05T19:05:19.954Z,1.95
2023-05-05T19:07:53.169Z,2.00
2023-05-05T19:10:28.068Z,2.13
2023-05-05T19:13:01.421Z,2.10
2023-05-05T19:15:34.710Z,2.10
2023-05-05T19:18:10.285Z,2.00
2023-05-05T19:20:43.684Z,2.50
2023-05-05T19:23:17.107Z,2.30
2023-05-05T19:25:53.491Z,2.60
2023-05-05T19:28:26.802Z,1.83
2023-05-05T19:31:00.190Z,2.53
2023-05-05T19:33:33.408Z,2.67
2023-05-05T19:36:06.967Z,2.70
2023-05-05T19:38:44.230Z,2.45
2023-05-05T19:41:19.028Z,2.10
2023-05-05T19:43:52.751Z,2.13
2023-05-05T19:46:26.718Z,2.22
2023-05-05T19:49:00.227Z,2.47
2023-05-05T19:51:33.532Z,1.85
2023-05-05T19:54:06.831Z,2.38
2023-05-05T19:56:41.439Z,2.97
2023-05-05T19:59:14.706Z,2.30
2023-05-05T20:01:48.115Z,2.50
2023-05-05T20:04:21.422Z,3.28
2023-05-05T20:06:54.638Z,2.70
2023-05-05T20:09:28.617Z,2.55
2023-05-05T20:14:36.365Z,3.00
2023-05-05T20:17:09.641Z,2.38
2023-05-05T20:19:42.856Z,2.63
2023-05-05T20:22:16.050Z,2.88
2023-05-05T20:24:49.268Z,2.83
2023-05-05T20:27:24.535Z,2.40
2023-05-05T20:29:59.369Z,2.45
2023-05-05T20:32:32.704Z,2.92
2023-05-05T20:35:07.322Z,2.03
2023-05-05T20:37:40.643Z,2.78
2023-05-05T20:40:14.565Z,2.90
2023-05-05T20:45:22.128Z,2.90
2023-05-05T20:47:55.427Z,2.78
2023-05-05T20:50:28.808Z,2.53
2023-05-05T20:53:02.082Z,2.72
2023-05-05T20:55:35.387Z,2.90
2023-05-05T20:58:09.930Z,2.08
2023-05-05T21:00:43.309Z,2.95
2023-05-05T21:03:16.700Z,2.58
2023-05-05T21:05:50.006Z,2.50
2023-05-05T21:08:23.264Z,2.45
2023-05-05T21:10:56.476Z,2.55
2023-05-05T21:13:32.010Z,2.20
2023-05-05T21:16:05.783Z,2.67
2023-05-05T21:21:12.191Z,2.28
2023-05-05T21:23:47.617Z,2.42
2023-05-05T21:26:21.000Z,2.53
2023-05-05T21:28:55.667Z,2.53
2023-05-05T21:31:28.987Z,2.67
2023-05-05T21:34:02.372Z,2.80
2023-05-05T21:36:36.832Z,2.78
2023-05-05T21:39:10.142Z,2.35
2023-05-05T21:41:43.406Z,2.97
2023-05-05T21:44:18.042Z,2.60
2023-05-05T21:46:51.254Z,2.63
2023-05-05T21:49:24.528Z,2.55
2023-05-05T21:51:57.754Z,2.80
2023-05-05T21:54:31.097Z,2.80
2023-05-05T21:57:04.332Z,2.30
2023-05-05T21:59:38.947Z,2.53
2023-05-05T22:02:12.218Z,2.05
2023-05-05T22:04:48.701Z,2.47
2023-05-05T22:07:22.037Z,2.30
2023-05-05T22:09:55.319Z,2.17
2023-05-05T22:12:28.528Z,2.83
2023-05-05T22:15:03.260Z,2.40
2023-05-05T22:17:37.206Z,2.65
2023-05-05T22:20:11.303Z,2.63
2023-05-05T22:22:44.795Z,2.22
2023-05-05T22:25:18.098Z,3.08
2023-05-05T22:27:51.507Z,2.67
2023-05-05T22:30:26.125Z,2.50
2023-05-05T22:32:59.360Z,2.45
2023-05-05T22:35:32.682Z,2.00
2023-05-05T22:38:06.420Z,2.50
2023-05-05T22:43:12.739Z,2.70
2023-05-05T22:45:47.526Z,2.50
2023-05-05T22:48:21.578Z,2.67
2023-05-05T22:50:54.781Z,2.42
2023-05-05T22:53:28.052Z,2.70
2023-05-05T22:56:01.425Z,2.83
2023-05-05T22:58:34.886Z,2.13
2023-05-05T23:01:09.724Z,2.60
2023-05-05T23:03:43.169Z,2.33
2023-05-05T23:06:16.424Z,2.45
2023-05-05T23:08:49.815Z,3.08
2023-05-05T23:11:23.034Z,2.85
2023-05-05T23:13:56.252Z,2.75
2023-05-05T23:16:30.971Z,2.50
2023-05-05T23:19:04.311Z,2.35
2023-05-05T23:21:49.173Z,2.35
2023-05-05T23:24:26.519Z,2.13
2023-05-05T23:27:01.901Z,2.75
2023-05-05T23:29:35.113Z,2.58
2023-05-05T23:32:09.792Z,2.20
2023-05-05T23:34:43.017Z,2.97
2023-05-05T23:37:16.281Z,2.83
2023-05-05T23:39:49.476Z,3.05
2023-05-05T23:42:22.722Z,2.53
2023-05-05T23:44:55.968Z,2.97
2023-05-05T23:47:30.586Z,2.50
2023-05-05T23:50:04.291Z,3.20
2023-05-05T23:52:37.488Z,2.92
2023-05-05T23:55:11.530Z,2.47
2023-05-05T23:57:44.892Z,2.20
